Time;durP1;ratioP1;P1;durP2;ratioP2;P2;SDS_P1;SDS_P2;PMS_P1;PMS_P2;Temp;Humidity;BMP_temperature;BMP_pressure;BME280_temperature;BME280_humidity;BME280_pressure;Samples;Min_cycle;Max_cycle;Signal;HPM_P1;HPM_P2
2022/07/07 00:01:59;;;;;;;3.10;1.07;;;12.90;94.80;;;;;;5095803;28;20285;-77
2022/07/07 00:04:25;;;;;;;3.70;1.20;;;12.90;95.10;;;;;;5085900;28;20422;-76
2022/07/07 00:06:51;;;;;;;4.23;1.13;;;12.80;95.20;;;;;;5086734;28;20216;-76
2022/07/07 00:09:17;;;;;;;5.53;1.70;;;12.70;95.30;;;;;;5086839;28;20601;-77
2022/07/07 00:11:43;;;;;;;2.10;1.00;;;12.70;95.30;;;;;;5099063;28;20226;-77
2022/07/07 00:14:09;;;;;;;2.17;1.07;;;12.80;95.60;;;;;;5092859;28;20674;-76
2022/07/07 00:16:36;;;;;;;3.10;1.20;;;12.80;95.00;;;;;;5092165;28;20263;-75
2022/07/07 00:19:03;;;;;;;13.90;1.47;;;12.70;95.40;;;;;;5091915;28;20534;-77
2022/07/07 00:21:29;;;;;;;1.93;0.80;;;12.60;95.50;;;;;;5091121;28;20414;-76
2022/07/07 00:23:55;;;;;;;2.40;0.90;;;12.60;95.40;;;;;;5086056;28;20826;-76
2022/07/07 00:26:21;;;;;;;2.23;0.80;;;12.60;95.60;;;;;;5085282;28;20192;-76
2022/07/07 00:28:48;;;;;;;4.03;1.20;;;12.60;95.30;;;;;;5091454;28;20473;-76
2022/07/07 00:31:14;;;;;;;2.70;1.33;;;12.60;95.70;;;;;;5094480;28;20422;-77
2022/07/07 00:33:40;;;;;;;1.80;0.80;;;12.60;95.40;;;;;;5086534;28;20419;-76
2022/07/07 00:36:07;;;;;;;12.83;1.30;;;12.60;95.50;;;;;;5083518;28;20189;-77
2022/07/07 00:38:33;;;;;;;7.50;1.47;;;12.60;95.70;;;;;;5090497;28;20284;-77
2022/07/07 00:40:59;;;;;;;1.97;0.90;;;12.60;95.50;;;;;;5080788;28;20430;-77
2022/07/07 00:43:25;;;;;;;2.63;1.10;;;12.60;95.80;;;;;;5093353;28;20419;-77
2022/07/07 00:45:51;;;;;;;2.00;1.07;;;12.50;96.10;;;;;;5084104;28;20520;-77
2022/07/07 00:48:18;;;;;;;2.10;0.90;;;12.50;96.40;;;;;;5089940;28;20200;-77
2022/07/07 00:50:46;;;;;;;3.40;1.40;;;12.50;96.50;;;;;;5088883;28;20410;-77
2022/07/07 00:53:11;;;;;;;3.50;1.00;;;12.50;96.80;;;;;;5085527;28;20435;-77
2022/07/07 00:55:38;;;;;;;3.87;1.10;;;12.60;96.80;;;;;;5086492;28;20433;-77
2022/07/07 00:58:04;;;;;;;1.73;0.80;;;12.60;96.60;;;;;;5087935;28;20203;-76
2022/07/07 01:00:31;;;;;;;1.93;0.90;;;12.60;96.10;;;;;;5084136;28;20415;-77
2022/07/07 01:02:57;;;;;;;1.50;0.80;;;12.60;96.20;;;;;;5073465;28;20415;-77
2022/07/07 01:05:23;;;;;;;1.60;0.90;;;12.70;96.50;;;;;;5088771;28;20422;-77
2022/07/07 01:07:51;;;;;;;2.97;0.90;;;12.70;96.50;;;;;;5074123;28;20455;-77
2022/07/07 01:10:17;;;;;;;1.90;1.00;;;12.60;96.50;;;;;;5081194;28;20948;-77
2022/07/07 01:12:43;;;;;;;2.20;1.57;;;12.70;96.40;;;;;;5095026;28;20458;-77
2022/07/07 01:15:12;;;;;;;2.30;1.30;;;12.70;96.40;;;;;;5078170;28;20435;-76
2022/07/07 01:17:38;;;;;;;2.53;1.50;;;12.70;96.80;;;;;;5073809;28;20178;-77
2022/07/07 01:20:05;;;;;;;3.20;1.47;;;12.70;97.20;;;;;;5087834;28;20467;-76
2022/07/07 01:22:34;;;;;;;6.40;1.37;;;12.80;97.00;;;;;;5099781;28;20509;-77
2022/07/07 01:25:00;;;;;;;2.23;1.00;;;12.80;97.30;;;;;;5094460;28;20418;-77
2022/07/07 01:27:26;;;;;;;2.50;1.43;;;12.90;97.10;;;;;;5093448;28;20419;-77
2022/07/07 01:29:55;;;;;;;3.50;1.00;;;12.90;96.60;;;;;;5094224;28;20208;-77
2022/07/07 01:32:22;;;;;;;1.60;0.90;;;12.90;96.70;;;;;;5093845;28;20571;-77
2022/07/07 01:34:49;;;;;;;4.00;1.63;;;13.00;96.10;;;;;;5094303;28;20467;-77
2022/07/07 01:37:16;;;;;;;2.70;1.43;;;13.00;96.00;;;;;;5094190;28;20420;-77
2022/07/07 01:39:42;;;;;;;4.70;1.20;;;13.00;96.10;;;;;;5094031;28;20415;-77
2022/07/07 01:42:10;;;;;;;5.40;1.10;;;12.90;96.50;;;;;;5093664;28;20418;-77
2022/07/07 01:44:38;;;;;;;5.40;1.77;;;13.00;96.50;;;;;;5094330;28;20434;-77
2022/07/07 01:47:05;;;;;;;2.00;1.07;;;13.00;96.30;;;;;;5094203;28;20435;-77
2022/07/07 01:49:31;;;;;;;6.10;1.20;;;13.00;96.60;;;;;;5093894;28;20458;-76
2022/07/07 01:51:58;;;;;;;2.03;1.00;;;13.00;97.10;;;;;;5093417;28;20482;-76
2022/07/07 01:54:24;;;;;;;1.90;1.00;;;13.00;97.00;;;;;;5093914;28;20421;-77
2022/07/07 01:56:50;;;;;;;2.57;0.90;;;13.00;97.00;;;;;;5094017;28;20430;-76
2022/07/07 01:59:16;;;;;;;2.47;1.60;;;13.00;96.90;;;;;;5093913;28;20922;-76
2022/07/07 02:01:41;;;;;;;2.03;1.20;;;13.00;97.00;;;;;;5107549;28;20272;-77
2022/07/07 02:04:07;;;;;;;5.10;0.90;;;13.00;96.90;;;;;;5080415;28;20208;-76
2022/07/07 02:06:33;;;;;;;2.73;1.53;;;13.00;96.70;;;;;;5094311;28;20202;-76
2022/07/07 02:08:59;;;;;;;2.73;1.27;;;13.00;97.20;;;;;;5098714;28;20207;-76
2022/07/07 02:11:27;;;;;;;2.67;1.40;;;13.00;97.20;;;;;;5097286;28;20177;-76
2022/07/07 02:13:53;;;;;;;3.30;1.70;;;13.00;97.10;;;;;;5107216;28;20500;-76
2022/07/07 02:16:21;;;;;;;2.07;1.20;;;12.90;97.30;;;;;;5095321;28;20452;-77
2022/07/07 02:18:48;;;;;;;2.00;1.10;;;13.00;97.00;;;;;;5097089;28;20773;-77
2022/07/07 02:21:15;;;;;;;2.73;1.33;;;13.00;97.00;;;;;;5097756;28;20510;-76
2022/07/07 02:23:43;;;;;;;2.13;1.10;;;13.10;97.30;;;;;;5095219;28;20426;-76
2022/07/07 02:26:09;;;;;;;1.90;1.10;;;13.20;96.70;;;;;;5117565;28;20450;-77
2022/07/07 02:28:34;;;;;;;2.67;1.20;;;13.20;96.20;;;;;;5118165;28;20504;-77
2022/07/07 02:31:00;;;;;;;3.00;1.60;;;13.20;96.10;;;;;;5132805;28;20191;-76
2022/07/07 02:33:26;;;;;;;2.53;1.40;;;13.20;95.80;;;;;;5125445;28;20156;-76
2022/07/07 02:35:53;;;;;;;2.13;0.90;;;13.20;96.00;;;;;;5111173;27;20184;-76
2022/07/07 02:38:19;;;;;;;2.83;1.37;;;13.20;96.10;;;;;;5102088;28;20241;-77
2022/07/07 02:40:45;;;;;;;2.50;1.20;;;13.20;96.00;;;;;;5113348;28;20410;-78
2022/07/07 02:43:14;;;;;;;6.10;1.30;;;13.30;96.00;;;;;;5113274;28;20909;-76
2022/07/07 02:45:43;;;;;;;7.50;1.40;;;13.30;95.90;;;;;;5104924;28;20253;-76
2022/07/07 02:48:11;;;;;;;3.60;1.60;;;13.30;95.70;;;;;;5110029;28;20453;-77
2022/07/07 02:50:37;;;;;;;2.93;1.50;;;13.30;95.90;;;;;;5114999;28;20401;-77
2022/07/07 02:53:04;;;;;;;1.87;0.90;;;13.30;96.10;;;;;;5095719;28;20422;-77
2022/07/07 02:55:30;;;;;;;2.53;1.20;;;13.20;95.80;;;;;;5106504;28;20433;-77
2022/07/07 02:58:00;;;;;;;2.03;1.27;;;13.20;95.90;;;;;;5105663;28;20431;-77
2022/07/07 03:00:26;;;;;;;2.97;1.43;;;13.10;96.10;;;;;;5092649;28;20425;-77
2022/07/07 03:02:53;;;;;;;5.43;1.30;;;13.10;96.40;;;;;;5102344;28;20415;-76
2022/07/07 03:05:19;;;;;;;3.03;1.13;;;13.10;96.50;;;;;;5083419;28;20479;-77
2022/07/07 03:07:45;;;;;;;2.70;1.10;;;13.20;96.80;;;;;;5106824;28;20520;-77
2022/07/07 03:10:10;;;;;;;2.90;1.50;;;13.20;96.30;;;;;;5094020;28;20600;-77
2022/07/07 03:12:36;;;;;;;9.63;1.53;;;13.30;96.50;;;;;;5088520;28;20267;-77
2022/07/07 03:15:02;;;;;;;2.60;1.30;;;13.30;96.10;;;;;;5098740;28;20176;-77
2022/07/07 03:17:27;;;;;;;2.90;1.50;;;13.30;95.70;;;;;;5092298;28;20176;-77
2022/07/07 03:19:53;;;;;;;6.83;1.33;;;13.40;95.60;;;;;;5092030;28;20224;-77
2022/07/07 03:22:19;;;;;;;2.63;1.53;;;13.40;95.40;;;;;;5091242;28;20210;-77
2022/07/07 03:24:45;;;;;;;2.50;1.03;;;13.40;95.00;;;;;;5092115;28;20196;-77
2022/07/07 03:27:11;;;;;;;2.30;1.20;;;13.40;95.00;;;;;;5092470;28;20188;-77
2022/07/07 03:29:36;;;;;;;2.23;1.00;;;13.50;95.10;;;;;;5091049;28;20212;-77
2022/07/07 03:32:02;;;;;;;2.10;1.07;;;13.40;95.00;;;;;;5097766;28;20171;-77
2022/07/07 03:34:28;;;;;;;4.00;1.33;;;13.40;95.00;;;;;;5100675;28;20530;-77
2022/07/07 03:36:54;;;;;;;3.20;1.37;;;13.40;95.00;;;;;;5091870;28;20482;-77
2022/07/07 03:39:19;;;;;;;5.80;1.63;;;13.30;95.00;;;;;;5091696;28;20195;-76
2022/07/07 03:41:45;;;;;;;1.93;1.10;;;13.40;95.40;;;;;;5091592;28;20923;-76
2022/07/07 03:44:11;;;;;;;17.20;1.40;;;13.30;95.10;;;;;;5092130;28;20188;-77
2022/07/07 03:46:36;;;;;;;2.43;1.30;;;13.30;95.20;;;;;;5092456;28;20522;-76
2022/07/07 03:49:02;;;;;;;2.43;1.20;;;13.30;95.10;;;;;;5092094;28;20224;-76
2022/07/07 03:51:28;;;;;;;3.73;1.60;;;13.30;95.10;;;;;;5091169;28;20225;-75
2022/07/07 03:53:53;;;;;;;2.50;1.27;;;13.30;95.10;;;;;;5091841;28;20177;-76
2022/07/07 03:56:19;;;;;;;4.30;1.30;;;13.40;95.00;;;;;;5091524;28;20184;-76
2022/07/07 03:58:45;;;;;;;5.50;1.77;;;13.40;95.10;;;;;;5091649;28;20245;-75
2022/07/07 04:01:10;;;;;;;7.37;2.03;;;13.40;94.90;;;;;;5091546;28;20180;-75
2022/07/07 04:03:37;;;;;;;4.83;2.00;;;13.40;95.10;;;;;;5091850;28;20180;-75
2022/07/07 04:06:04;;;;;;;3.10;1.37;;;13.40;95.10;;;;;;5106725;28;20265;-76
2022/07/07 04:08:30;;;;;;;2.70;1.30;;;13.40;95.20;;;;;;5091882;28;20464;-75
2022/07/07 04:10:55;;;;;;;2.03;1.10;;;13.40;95.50;;;;;;5092058;28;20501;-76
2022/07/07 04:13:21;;;;;;;2.73;1.43;;;13.40;95.40;;;;;;5088508;28;20192;-75
2022/07/07 04:15:47;;;;;;;2.57;1.10;;;13.50;95.20;;;;;;5095148;28;20650;-76
2022/07/07 04:18:12;;;;;;;4.37;1.47;;;13.40;95.20;;;;;;5091324;28;20184;-75
2022/07/07 04:20:38;;;;;;;2.33;1.17;;;13.50;95.40;;;;;;5091256;28;20180;-75
2022/07/07 04:23:04;;;;;;;6.60;1.20;;;13.40;95.50;;;;;;5091310;28;20180;-76
2022/07/07 04:25:29;;;;;;;4.37;1.10;;;13.50;95.50;;;;;;5092156;28;20202;-76
2022/07/07 04:27:55;;;;;;;6.63;1.13;;;13.50;95.10;;;;;;5091404;28;20526;-76
2022/07/07 04:30:21;;;;;;;2.40;1.50;;;13.50;95.20;;;;;;5091954;28;20189;-76
2022/07/07 04:32:46;;;;;;;2.10;1.00;;;13.50;95.00;;;;;;5091351;28;20597;-76
2022/07/07 04:35:12;;;;;;;6.13;1.37;;;13.50;95.30;;;;;;5091772;28;20214;-76
2022/07/07 04:37:38;;;;;;;2.77;1.47;;;13.50;95.50;;;;;;5091473;28;20176;-75
2022/07/07 04:40:04;;;;;;;3.00;1.43;;;13.50;95.80;;;;;;5091504;28;20642;-75
2022/07/07 04:42:30;;;;;;;3.27;1.50;;;13.50;95.40;;;;;;5086723;28;20223;-76
2022/07/07 04:44:55;;;;;;;4.50;1.23;;;13.60;95.60;;;;;;5090261;28;20449;-75
2022/07/07 04:47:21;;;;;;;2.63;1.30;;;13.60;95.70;;;;;;5078300;28;20544;-76
2022/07/07 04:49:47;;;;;;;4.47;1.40;;;13.60;95.40;;;;;;5091684;28;20239;-76
2022/07/07 04:52:13;;;;;;;3.00;1.37;;;13.60;95.70;;;;;;5083553;28;20184;-76
2022/07/07 04:54:38;;;;;;;2.60;1.30;;;13.60;95.70;;;;;;5080175;28;20181;-77
2022/07/07 04:57:04;;;;;;;3.03;1.37;;;13.60;95.90;;;;;;5093720;28;20528;-77
2022/07/07 04:59:30;;;;;;;3.07;1.20;;;13.70;95.50;;;;;;5109123;28;20685;-76
2022/07/07 05:01:56;;;;;;;4.70;1.50;;;13.60;95.50;;;;;;5095353;28;20446;-77
2022/07/07 05:04:21;;;;;;;6.03;1.20;;;13.70;95.40;;;;;;5095427;28;20234;-77
2022/07/07 05:06:47;;;;;;;10.57;1.87;;;13.60;95.20;;;;;;5095009;28;20180;-77
2022/07/07 05:09:13;;;;;;;4.00;1.33;;;13.50;95.00;;;;;;5095223;28;20220;-77
2022/07/07 05:11:38;;;;;;;8.37;1.60;;;13.50;95.10;;;;;;5094642;28;20187;-76
2022/07/07 05:14:04;;;;;;;2.30;1.10;;;13.60;95.50;;;;;;5094231;28;20168;-77
2022/07/07 05:16:30;;;;;;;2.20;1.10;;;13.60;95.90;;;;;;5082884;28;20173;-76
2022/07/07 05:18:56;;;;;;;3.40;1.43;;;13.60;95.60;;;;;;5084759;28;20260;-77
2022/07/07 05:21:22;;;;;;;3.63;1.10;;;13.70;95.30;;;;;;5085780;28;20452;-77
2022/07/07 05:23:48;;;;;;;2.80;1.20;;;13.70;95.70;;;;;;5085744;28;20188;-77
2022/07/07 05:26:14;;;;;;;2.60;1.23;;;13.80;95.30;;;;;;5081863;28;20209;-77
2022/07/07 05:28:43;;;;;;;2.20;1.20;;;13.90;94.80;;;;;;5089835;28;20462;-77
2022/07/07 05:31:12;;;;;;;5.20;1.97;;;13.90;94.60;;;;;;5077908;28;20658;-77
2022/07/07 05:33:37;;;;;;;2.53;1.03;;;14.00;94.60;;;;;;5082121;28;20809;-77
2022/07/07 05:36:04;;;;;;;2.87;1.03;;;14.00;94.60;;;;;;5089134;28;20419;-77
2022/07/07 05:38:30;;;;;;;2.60;1.13;;;14.00;94.80;;;;;;5079201;28;20611;-76
2022/07/07 05:40:56;;;;;;;2.50;1.20;;;14.00;94.90;;;;;;5078699;28;20419;-76
2022/07/07 05:43:25;;;;;;;2.70;1.53;;;14.10;94.60;;;;;;5080253;28;20456;-76
2022/07/07 05:45:51;;;;;;;2.37;1.30;;;14.20;94.70;;;;;;5078916;28;20262;-76
2022/07/07 05:48:17;;;;;;;2.10;1.17;;;14.20;94.80;;;;;;5077503;28;20527;-77
2022/07/07 05:50:43;;;;;;;1.90;0.83;;;14.30;94.30;;;;;;5072220;28;20181;-75
2022/07/07 05:53:09;;;;;;;2.47;1.20;;;14.40;94.00;;;;;;5072639;28;20472;-76
2022/07/07 05:55:34;;;;;;;2.30;1.23;;;14.50;94.10;;;;;;5078919;28;20267;-76
2022/07/07 05:58:00;;;;;;;4.00;1.63;;;14.60;94.30;;;;;;5104461;28;20195;-76
2022/07/07 06:00:26;;;;;;;7.50;1.60;;;14.70;93.90;;;;;;5092479;28;20179;-76
2022/07/07 06:02:52;;;;;;;5.93;1.50;;;14.70;94.10;;;;;;5092518;28;20184;-76
2022/07/07 06:05:18;;;;;;;4.17;0.80;;;14.80;93.70;;;;;;5093247;28;20442;-76
2022/07/07 06:07:44;;;;;;;2.00;1.03;;;14.80;93.80;;;;;;5092703;28;20896;-76
2022/07/07 06:10:11;;;;;;;2.30;1.00;;;14.80;93.70;;;;;;5092711;28;20204;-76
2022/07/07 06:12:41;;;;;;;3.00;1.10;;;14.80;93.80;;;;;;5092556;28;20951;-76
2022/07/07 06:15:07;;;;;;;3.90;1.17;;;14.80;93.70;;;;;;5088709;28;20429;-77
2022/07/07 06:17:33;;;;;;;3.00;1.13;;;14.90;94.00;;;;;;5092364;28;20457;-76
2022/07/07 06:19:59;;;;;;;3.20;1.17;;;15.00;93.90;;;;;;5092724;28;20430;-76
2022/07/07 06:22:25;;;;;;;1.90;1.00;;;15.10;93.80;;;;;;5082820;28;20453;-77
2022/07/07 06:24:51;;;;;;;2.37;1.17;;;15.30;94.30;;;;;;5092935;28;20176;-76
2022/07/07 06:27:16;;;;;;;2.17;0.90;;;15.50;93.60;;;;;;5091828;28;20799;-76
2022/07/07 06:29:42;;;;;;;2.27;1.27;;;15.70;92.70;;;;;;5083558;28;20205;-76
2022/07/07 06:32:08;;;;;;;1.90;0.83;;;15.90;92.80;;;;;;5083181;28;20176;-77
2022/07/07 06:34:33;;;;;;;1.80;1.20;;;16.10;92.90;;;;;;5078160;28;20181;-76
2022/07/07 06:36:59;;;;;;;2.47;1.00;;;16.30;91.90;;;;;;5084018;28;20169;-76
2022/07/07 06:39:25;;;;;;;1.80;0.80;;;16.50;91.80;;;;;;5081493;28;20309;-77
2022/07/07 06:41:51;;;;;;;1.53;0.80;;;16.70;92.00;;;;;;5073448;28;20177;-76
2022/07/07 06:44:16;;;;;;;2.57;1.10;;;16.80;92.00;;;;;;5078077;28;20199;-76
2022/07/07 06:46:42;;;;;;;9.53;1.53;;;17.00;90.90;;;;;;5086512;28;20177;-76
2022/07/07 06:49:08;;;;;;;3.40;1.17;;;17.20;90.30;;;;;;5069980;28;20201;-76
2022/07/07 06:51:33;;;;;;;5.73;1.53;;;17.30;90.50;;;;;;5070197;28;20185;-76
2022/07/07 06:53:59;;;;;;;3.83;1.20;;;17.30;90.70;;;;;;5072898;28;20175;-77
2022/07/07 06:56:25;;;;;;;3.13;1.43;;;17.30;90.10;;;;;;5088421;28;20192;-77
2022/07/07 06:58:51;;;;;;;2.97;1.20;;;17.30;90.20;;;;;;5086269;28;20184;-76
2022/07/07 07:01:17;;;;;;;5.50;1.30;;;17.30;90.70;;;;;;5076739;28;20419;-76
2022/07/07 07:03:46;;;;;;;1.90;1.03;;;17.30;91.30;;;;;;5083534;28;20204;-76
2022/07/07 07:06:12;;;;;;;4.30;1.43;;;17.40;91.30;;;;;;5072024;28;20177;-77
2022/07/07 07:08:37;;;;;;;2.53;1.23;;;17.50;91.40;;;;;;5084680;28;20546;-77
2022/07/07 07:11:03;;;;;;;2.87;1.00;;;17.50;91.50;;;;;;5075980;28;20180;-77
2022/07/07 07:13:29;;;;;;;2.10;0.90;;;17.80;91.70;;;;;;5075249;28;20804;-76
2022/07/07 07:15:55;;;;;;;2.77;1.30;;;18.10;90.80;;;;;;5073381;28;20964;-77
2022/07/07 07:18:21;;;;;;;4.33;1.40;;;18.40;90.70;;;;;;5076876;28;20427;-77
2022/07/07 07:20:47;;;;;;;3.50;1.30;;;18.60;90.10;;;;;;5088586;28;20424;-77
2022/07/07 07:23:12;;;;;;;7.43;1.37;;;18.60;90.10;;;;;;5081219;28;20212;-77
2022/07/07 07:25:38;;;;;;;3.50;0.90;;;18.60;90.30;;;;;;5083407;28;20177;-77
2022/07/07 07:28:04;;;;;;;2.10;1.07;;;19.10;88.00;;;;;;5085679;28;20181;-77
2022/07/07 07:30:30;;;;;;;2.03;1.00;;;19.30;86.60;;;;;;5085889;28;20839;-77
2022/07/07 07:32:55;;;;;;;3.83;1.17;;;19.60;88.10;;;;;;5090145;28;20419;-76
2022/07/07 07:35:21;;;;;;;2.43;0.93;;;19.70;84.70;;;;;;5093451;28;20168;-77
2022/07/07 07:37:47;;;;;;;4.53;0.97;;;19.90;87.00;;;;;;5096103;28;20177;-77
2022/07/07 07:40:12;;;;;;;3.70;1.57;;;20.20;84.20;;;;;;5092263;28;20176;-77
2022/07/07 07:42:39;;;;;;;2.57;1.30;;;20.60;84.70;;;;;;5087235;28;20612;-77
2022/07/07 07:45:12;;;;;;;5.53;1.20;;;21.70;83.10;;;;;;5077318;28;20215;-78
2022/07/07 07:47:44;;;;;;;9.90;1.20;;;22.00;80.40;;;;;;5092488;28;20810;-77
2022/07/07 07:50:15;;;;;;;4.23;1.67;;;21.90;79.40;;;;;;5093910;28;20454;-78
2022/07/07 07:52:42;;;;;;;3.47;1.40;;;21.90;79.20;;;;;;5091417;28;20425;-77
2022/07/07 07:55:10;;;;;;;2.27;1.10;;;21.50;80.20;;;;;;5086083;28;20968;-77
2022/07/07 07:57:36;;;;;;;1.97;1.10;;;21.10;82.20;;;;;;5096595;28;20583;-77
2022/07/07 08:00:04;;;;;;;7.83;1.27;;;20.70;82.80;;;;;;5090504;28;20850;-77
2022/07/07 08:02:30;;;;;;;4.03;1.30;;;20.50;84.00;;;;;;5087045;28;20423;-77
2022/07/07 08:04:55;;;;;;;3.20;1.27;;;20.40;85.80;;;;;;5071879;28;20430;-77
2022/07/07 08:07:21;;;;;;;2.13;1.00;;;20.50;83.70;;;;;;5073418;28;20173;-77
2022/07/07 08:09:47;;;;;;;4.03;1.47;;;20.40;83.40;;;;;;5085411;28;20198;-77
2022/07/07 08:12:13;;;;;;;5.80;1.20;;;20.30;84.50;;;;;;5084256;28;20252;-77
2022/07/07 08:14:38;;;;;;;2.70;1.43;;;20.10;84.80;;;;;;5084732;28;20227;-77
2022/07/07 08:17:04;;;;;;;2.60;1.30;;;19.90;86.10;;;;;;5082814;28;20523;-77
2022/07/07 08:19:30;;;;;;;10.27;1.30;;;19.60;86.40;;;;;;5086429;28;20181;-77
2022/07/07 08:21:55;;;;;;;3.13;1.10;;;19.40;87.10;;;;;;5087995;28;20199;-77
2022/07/07 08:24:21;;;;;;;6.80;1.60;;;19.20;86.40;;;;;;5088678;28;20267;-77
2022/07/07 08:26:47;;;;;;;2.70;1.30;;;19.10;86.90;;;;;;5094954;28;20188;-77
2022/07/07 08:29:13;;;;;;;3.10;1.17;;;19.00;88.30;;;;;;5091793;28;20208;-77
2022/07/07 08:31:39;;;;;;;4.57;1.33;;;18.80;88.80;;;;;;5087271;28;20191;-77
2022/07/07 08:34:05;;;;;;;7.77;1.40;;;18.70;88.90;;;;;;5093345;28;20233;-77
2022/07/07 08:36:30;;;;;;;9.07;1.80;;;18.60;89.30;;;;;;5088744;28;20660;-76
2022/07/07 08:38:57;;;;;;;1.90;1.07;;;18.40;89.60;;;;;;5084473;28;20234;-76
2022/07/07 08:41:24;;;;;;;2.37;1.33;;;18.30;90.00;;;;;;5081924;28;20692;-76
2022/07/07 08:43:50;;;;;;;2.20;1.23;;;18.40;90.10;;;;;;5083843;28;20438;-77
2022/07/07 08:46:16;;;;;;;1.87;0.83;;;18.30;90.30;;;;;;5092052;28;20430;-77
2022/07/07 08:48:42;;;;;;;3.50;1.50;;;18.20;90.40;;;;;;5073815;28;20217;-77
2022/07/07 08:51:08;;;;;;;3.50;1.43;;;18.20;90.50;;;;;;5080662;28;20495;-77
2022/07/07 08:53:37;;;;;;;2.23;1.00;;;18.20;90.10;;;;;;5079653;28;20661;-76
2022/07/07 08:56:07;;;;;;;2.97;1.50;;;18.40;90.00;;;;;;5093226;28;20459;-76
2022/07/07 08:58:35;;;;;;;2.87;1.60;;;18.60;90.10;;;;;;5097059;28;20434;-76
2022/07/07 09:01:02;;;;;;;2.30;1.10;;;18.80;89.40;;;;;;5092769;28;20440;-77
2022/07/07 09:03:28;;;;;;;2.90;1.40;;;18.80;90.60;;;;;;5082254;28;20859;-77
2022/07/07 09:05:55;;;;;;;3.40;1.23;;;18.90;89.30;;;;;;5078770;28;20426;-77
2022/07/07 09:08:22;;;;;;;2.13;1.07;;;18.80;89.60;;;;;;5087561;28;20298;-76
2022/07/07 09:10:48;;;;;;;3.37;1.50;;;18.80;89.80;;;;;;5083246;28;20429;-77
2022/07/07 09:13:26;;;;;;;3.10;1.37;;;19.00;90.70;;;;;;5090202;28;20419;-77
2022/07/07 09:15:53;;;;;;;2.73;1.40;;;19.30;89.50;;;;;;5085410;28;20410;-76
2022/07/07 09:18:34;;;;;;;2.40;1.40;;;19.90;88.10;;;;;;5085360;28;20502;-77
2022/07/07 09:21:02;;;;;;;2.67;1.30;;;20.80;86.70;;;;;;5091117;28;20422;-77
2022/07/07 09:23:28;;;;;;;4.73;1.83;;;21.50;84.50;;;;;;5088978;28;20422;-77
2022/07/07 09:25:55;;;;;;;6.17;1.97;;;22.00;84.00;;;;;;5083455;28;20410;-77
2022/07/07 09:28:20;;;;;;;3.50;1.60;;;22.20;82.30;;;;;;5088744;27;20475;-76
2022/07/07 09:30:48;;;;;;;2.47;1.43;;;21.80;84.40;;;;;;5088414;28;20424;-77
2022/07/07 09:33:23;;;;;;;2.90;1.87;;;21.90;84.90;;;;;;5091618;28;20648;-77
2022/07/07 09:38:44;;;;;;;5.37;2.60;;;21.10;86.20;;;;;;5069820;28;20407;-77
2022/07/07 09:41:12;;;;;;;5.53;2.33;;;20.70;87.00;;;;;;5076746;28;20439;-77
2022/07/07 09:43:53;;;;;;;5.00;2.30;;;20.30;87.80;;;;;;5086988;28;20442;-76
2022/07/07 09:46:29;;;;;;;4.60;2.03;;;19.90;89.10;;;;;;5082030;28;21001;-76
2022/07/07 09:48:59;;;;;;;10.17;2.63;;;19.70;89.40;;;;;;5079443;28;20453;-76
2022/07/07 09:51:32;;;;;;;8.43;2.67;;;19.30;90.20;;;;;;5088126;28;20456;-77
2022/07/07 09:54:10;;;;;;;4.23;2.20;;;19.10;90.50;;;;;;5086684;28;20418;-75
2022/07/07 09:56:44;;;;;;;3.50;1.93;;;19.00;91.30;;;;;;5083686;28;20962;-77
2022/07/07 09:59:16;;;;;;;4.70;2.40;;;18.90;91.20;;;;;;5074046;28;20434;-76
2022/07/07 10:01:44;;;;;;;3.70;2.27;;;19.00;91.10;;;;;;5083424;28;20435;-76
2022/07/07 10:04:13;;;;;;;4.33;2.10;;;18.80;91.60;;;;;;5077872;28;20424;-76
2022/07/07 10:06:41;;;;;;;19.27;1.97;;;18.90;91.40;;;;;;5077380;28;20469;-77
2022/07/07 10:09:09;;;;;;;4.60;2.17;;;19.00;91.60;;;;;;5080953;28;20502;-77
2022/07/07 10:11:40;;;;;;;3.17;1.70;;;19.10;91.10;;;;;;5082764;28;20495;-76
2022/07/07 10:14:16;;;;;;;6.50;2.00;;;19.10;90.80;;;;;;5087791;28;20555;-77
2022/07/07 10:16:45;;;;;;;5.47;1.83;;;18.90;91.20;;;;;;5080865;28;20407;-76
2022/07/07 10:19:13;;;;;;;3.40;1.37;;;18.80;91.30;;;;;;5083286;28;20966;-76
2022/07/07 10:21:44;;;;;;;4.30;2.00;;;18.90;91.20;;;;;;5083649;28;20475;-77
2022/07/07 10:24:11;;;;;;;3.30;1.93;;;19.00;91.30;;;;;;5087860;28;20805;-77
2022/07/07 10:26:42;;;;;;;2.87;1.63;;;19.00;91.00;;;;;;5092256;28;20918;-77
2022/07/07 10:29:09;;;;;;;11.10;2.13;;;18.90;92.40;;;;;;5080372;28;20463;-77
2022/07/07 10:31:36;;;;;;;2.23;1.70;;;19.00;91.70;;;;;;5103422;28;20441;-77
2022/07/07 10:34:05;;;;;;;3.57;1.90;;;19.20;92.00;;;;;;5095301;27;20448;-76
2022/07/07 10:36:46;;;;;;;2.73;1.47;;;19.40;91.10;;;;;;5086178;28;20423;-77
2022/07/07 10:39:21;;;;;;;3.10;1.23;;;19.60;90.60;;;;;;5095879;28;20426;-77
2022/07/07 10:42:15;;;;;;;1.97;1.13;;;19.60;90.30;;;;;;5079473;28;20418;-76
2022/07/07 10:44:52;;;;;;;1.73;1.00;;;19.60;89.80;;;;;;5079724;28;20458;-77
2022/07/07 10:47:17;;;;;;;4.10;1.60;;;19.50;90.50;;;;;;5081932;28;20774;-77
2022/07/07 10:49:46;;;;;;;2.40;1.20;;;19.50;90.80;;;;;;5080436;28;20469;-76
2022/07/07 10:52:17;;;;;;;6.23;1.80;;;19.50;90.30;;;;;;5090519;28;20184;-76
2022/07/07 10:54:47;;;;;;;4.10;1.73;;;19.60;90.30;;;;;;5075712;28;20494;-76
2022/07/07 10:57:23;;;;;;;2.03;1.20;;;19.60;90.60;;;;;;5089364;28;20475;-77
2022/07/07 11:00:09;;;;;;;2.70;1.60;;;19.50;90.60;;;;;;5091354;28;20414;-75
2022/07/07 11:02:39;;;;;;;4.17;1.47;;;19.50;90.50;;;;;;5075300;28;20418;-75
2022/07/07 11:05:14;;;;;;;2.73;1.20;;;19.50;90.40;;;;;;5074119;28;20420;-77
2022/07/07 11:07:41;;;;;;;2.40;1.27;;;19.50;90.40;;;;;;5086939;28;20419;-75
2022/07/07 11:10:10;;;;;;;2.63;1.60;;;19.40;90.60;;;;;;5096453;28;20444;-75
2022/07/07 11:12:46;;;;;;;5.73;2.10;;;19.50;90.50;;;;;;5102964;28;20415;-76
2022/07/07 11:15:14;;;;;;;5.83;1.20;;;19.60;90.10;;;;;;5083611;28;20412;-76
2022/07/07 11:17:45;;;;;;;2.27;1.10;;;19.60;90.20;;;;;;5091472;28;20436;-76
2022/07/07 11:20:22;;;;;;;9.07;1.30;;;19.40;91.00;;;;;;5091271;28;21107;-76
2022/07/07 11:22:51;;;;;;;2.10;1.00;;;19.40;90.90;;;;;;5083922;28;20451;-77
2022/07/07 11:25:24;;;;;;;2.10;1.20;;;19.30;91.20;;;;;;5092454;28;20464;-77
2022/07/07 11:27:51;;;;;;;5.00;1.60;;;19.40;91.00;;;;;;5086445;28;20443;-76
2022/07/07 11:30:22;;;;;;;5.40;1.93;;;19.40;90.80;;;;;;5090833;28;20466;-76
2022/07/07 11:32:49;;;;;;;4.80;1.03;;;19.30;90.70;;;;;;5085389;28;20477;-77
2022/07/07 11:35:15;;;;;;;3.03;1.57;;;19.30;90.90;;;;;;5083162;28;20904;-76
2022/07/07 11:37:46;;;;;;;3.30;1.30;;;19.20;91.20;;;;;;5092590;28;20410;-76
2022/07/07 11:40:14;;;;;;;2.57;1.37;;;19.20;91.10;;;;;;5080979;28;20493;-75
2022/07/07 11:42:42;;;;;;;2.80;1.33;;;19.20;91.40;;;;;;5084459;28;20411;-77
2022/07/07 11:45:23;;;;;;;3.80;1.40;;;19.30;91.40;;;;;;5086392;28;20447;-76
2022/07/07 11:47:50;;;;;;;2.33;1.10;;;19.40;91.60;;;;;;5085296;28;20434;-76
2022/07/07 11:50:16;;;;;;;3.00;1.10;;;19.50;90.70;;;;;;5082615;28;20484;-77
2022/07/07 11:52:50;;;;;;;9.00;0.90;;;19.50;90.60;;;;;;5083802;28;20457;-76
2022/07/07 11:55:18;;;;;;;6.07;1.57;;;19.60;90.70;;;;;;5082325;28;20418;-76
2022/07/07 11:58:02;;;;;;;1.87;0.80;;;19.50;90.70;;;;;;5093950;28;20944;-77
2022/07/07 12:00:33;;;;;;;2.80;0.97;;;19.40;90.40;;;;;;5093306;28;20461;-76
2022/07/07 12:03:00;;;;;;;3.60;0.90;;;19.40;90.00;;;;;;5076257;28;20427;-76
2022/07/07 12:05:28;;;;;;;1.87;0.80;;;19.40;90.50;;;;;;5079260;28;20467;-77
2022/07/07 12:08:08;;;;;;;5.10;1.07;;;19.30;90.30;;;;;;5087871;28;20506;-76
2022/07/07 12:10:42;;;;;;;2.00;1.07;;;19.40;90.30;;;;;;5093181;28;20437;-76
2022/07/07 12:13:13;;;;;;;5.50;1.30;;;19.30;90.70;;;;;;5087770;28;20407;-77
2022/07/07 12:15:50;;;;;;;2.70;0.90;;;19.30;90.60;;;;;;5087814;28;20418;-76
2022/07/07 12:18:20;;;;;;;2.10;1.00;;;19.50;90.70;;;;;;5082306;28;20403;-76
2022/07/07 12:20:56;;;;;;;4.43;1.03;;;19.60;90.50;;;;;;5089385;28;20880;-77
2022/07/07 12:23:22;;;;;;;1.63;0.83;;;19.80;90.10;;;;;;5082856;28;20447;-77
2022/07/07 12:25:47;;;;;;;3.67;1.20;;;19.90;90.90;;;;;;5098447;28;20414;-77
2022/07/07 12:28:17;;;;;;;3.47;1.50;;;20.00;90.10;;;;;;5111460;28;20226;-76
2022/07/07 12:30:54;;;;;;;2.67;1.30;;;20.00;89.60;;;;;;5122473;28;20264;-76
2022/07/07 12:33:39;;;;;;;2.53;0.90;;;20.00;90.40;;;;;;5118692;28;20518;-76
2022/07/07 12:36:10;;;;;;;2.40;1.00;;;19.90;88.90;;;;;;5115964;28;20427;-77
2022/07/07 12:38:46;;;;;;;4.33;1.07;;;19.70;90.50;;;;;;5119748;28;20430;-76
2022/07/07 12:41:32;;;;;;;4.00;1.17;;;19.60;90.50;;;;;;5115285;28;20417;-76
2022/07/07 12:44:14;;;;;;;3.80;1.87;;;19.60;90.00;;;;;;5100925;28;20422;-76
2022/07/07 12:46:40;;;;;;;4.60;1.40;;;19.50;90.70;;;;;;5106435;28;20411;-76
2022/07/07 12:49:06;;;;;;;3.53;1.40;;;19.70;90.20;;;;;;5109885;28;20462;-75
2022/07/07 12:51:32;;;;;;;2.17;1.30;;;19.90;90.10;;;;;;5118332;28;20429;-77